Portada
METAR-TAF:

METAR-TAF

Aeroports :

New River Valley Airport

Dublin, Virgínia, Estats Units d'Amèrica

latitud: 37-08N, longitud: 080-41W, altitud: 642 m

Observació

L'informe es va fer fa 23 minuts, a les 23:15 UTC
Vent 4 kt del Oest
Temperatura 29°C
Humitat 55%
Pressió 1021 hPa
Visibilitat: 16.1 km
Cel clar

METAR: KPSK 252315Z AUTO 26004KT 10SM CLR 29/19 A3015 RMK AO2 T02870187

Hora: 19:38 (23:38 UTC)


TAF: manca

Observacions i pronòstics meteorològics de més de 4000 aeroports (METAR i TAF).

Les estacions disponibles són els punts grocs i vermells al mapa.

Posi el ratolí al punt desitjat per veure el nom de l'estació.

Feu clic per veure les observacions i els pronòstics meteorològics.

Per canviar el mapa: feu clic els botons verds amb una creu de color negre per apropar; al botó verd amb un guió per allunyar la imatge; o en les fletxes verdes per a mapes adjacents.


METAR-TAF: